Time;durP1;ratioP1;P1;durP2;ratioP2;P2;SDS_P1;SDS_P2;PMS_P1;PMS_P2;Temp;Humidity;BMP_temperature;BMP_pressure;BME280_temperature;BME280_humidity;BME280_pressure;Samples;Min_cycle;Max_cycle;Signal;HPM_P1;HPM_P2
2024/04/05 00:01:28;;;;;;;0.55;0.55;;;;;;;;;;5058278;28;20131;-81
2024/04/05 00:03:55;;;;;;;0.20;0.10;;;;;;;;;;5050168;28;20055;-77
2024/04/05 00:06:22;;;;;;;0.20;0.10;;;;;;;;;;5047211;28;20127;-80
2024/04/05 00:08:48;;;;;;;0.40;0.40;;;;;;;;;;5043338;28;20040;-80
2024/04/05 00:11:14;;;;;;;0.20;0.10;;;;;;;;;;5059031;28;20035;-77
2024/04/05 00:13:40;;;;;;;0.20;0.10;;;;;;;;;;5046622;28;20131;-80
2024/04/05 00:16:06;;;;;;;0.20;0.00;;;;;;;;;;5058905;28;20627;-80
2024/04/05 00:18:35;;;;;;;0.20;0.08;;;;;;;;;;5042196;28;20041;-77
2024/04/05 00:21:02;;;;;;;0.93;0.93;;;;;;;;;;5048690;28;20029;-79
2024/04/05 00:23:28;;;;;;;0.30;0.30;;;;;;;;;;5048894;28;20075;-78
2024/04/05 00:26:02;;;;;;;0.20;0.05;;;;;;;;;;5046030;28;20119;-80
2024/04/05 00:28:29;;;;;;;0.20;0.10;;;;;;;;;;5059419;28;20037;-80
2024/04/05 00:30:55;;;;;;;3.10;0.40;;;;;;;;;;5065059;28;20123;-79
2024/04/05 00:33:21;;;;;;;0.30;0.20;;;;;;;;;;5060009;28;20036;-80
2024/04/05 00:35:54;;;;;;;0.25;0.20;;;;;;;;;;5060940;28;20048;-81
2024/04/05 00:38:20;;;;;;;0.20;0.00;;;;;;;;;;5048974;28;20044;-80
2024/04/05 00:40:46;;;;;;;0.20;0.10;;;;;;;;;;5060120;28;20037;-81
2024/04/05 00:43:13;;;;;;;0.25;0.13;;;;;;;;;;5056339;28;20515;-80
2024/04/05 00:45:39;;;;;;;0.20;0.00;;;;;;;;;;5073663;28;20048;-81
2024/04/05 00:48:06;;;;;;;0.20;0.00;;;;;;;;;;5046340;28;20338;-82
2024/04/05 00:50:33;;;;;;;0.20;0.08;;;;;;;;;;5043858;28;20123;-78
2024/04/05 00:53:00;;;;;;;0.20;0.10;;;;;;;;;;5053940;28;20041;-80
2024/04/05 00:55:27;;;;;;;0.20;0.10;;;;;;;;;;5061402;28;20060;-81
2024/04/05 00:57:54;;;;;;;0.20;0.10;;;;;;;;;;5046974;28;20044;-80
2024/04/05 01:00:23;;;;;;;1.75;1.40;;;;;;;;;;5042202;28;20041;-78
2024/04/05 01:02:49;;;;;;;0.47;0.28;;;;;;;;;;5047591;28;20037;-81
2024/04/05 01:05:15;;;;;;;0.20;0.10;;;;;;;;;;5056784;28;20382;-79
2024/04/05 01:07:41;;;;;;;0.20;0.08;;;;;;;;;;5058876;28;20075;-82
2024/04/05 01:10:07;;;;;;;0.20;0.00;;;;;;;;;;5045644;28;20501;-80
2024/04/05 01:12:33;;;;;;;0.20;0.10;;;;;;;;;;5047752;28;20090;-78
2024/04/05 01:14:59;;;;;;;0.20;0.00;;;;;;;;;;5059376;28;20044;-80
2024/04/05 01:17:25;;;;;;;0.20;0.10;;;;;;;;;;5059596;28;20040;-80
2024/04/05 01:19:52;;;;;;;0.20;0.10;;;;;;;;;;5055176;28;20040;-78
2024/04/05 01:22:22;;;;;;;0.20;0.10;;;;;;;;;;5061470;28;20033;-79
2024/04/05 01:24:48;;;;;;;0.20;0.20;;;;;;;;;;5065810;28;20029;-79
2024/04/05 01:27:14;;;;;;;0.20;0.10;;;;;;;;;;5052006;28;20043;-78
2024/04/05 01:29:41;;;;;;;0.20;0.00;;;;;;;;;;5066116;28;20071;-82
2024/04/05 01:32:06;;;;;;;0.20;0.10;;;;;;;;;;5059818;28;20041;-79
2024/04/05 01:34:32;;;;;;;0.20;0.05;;;;;;;;;;5067912;28;20138;-80
2024/04/05 01:36:59;;;;;;;0.20;0.10;;;;;;;;;;5066032;28;20472;-81
2024/04/05 01:39:25;;;;;;;0.20;0.10;;;;;;;;;;5069952;28;20147;-81
2024/04/05 01:41:51;;;;;;;0.20;0.00;;;;;;;;;;5057802;28;20028;-80
2024/04/05 01:44:17;;;;;;;0.20;0.10;;;;;;;;;;5056237;28;20040;-79
2024/04/05 01:46:43;;;;;;;0.20;0.10;;;;;;;;;;5051956;28;20047;-78
2024/04/05 01:49:08;;;;;;;0.73;0.73;;;;;;;;;;5062063;28;20178;-80
2024/04/05 01:51:35;;;;;;;0.20;0.00;;;;;;;;;;5048459;28;20868;-79
2024/04/05 01:54:00;;;;;;;0.20;0.20;;;;;;;;;;5063153;28;20147;-81
2024/04/05 01:56:26;;;;;;;0.20;0.10;;;;;;;;;;5049200;28;20143;-79
2024/04/05 01:58:52;;;;;;;0.20;0.00;;;;;;;;;;5066064;28;20252;-78
2024/04/05 02:01:18;;;;;;;0.20;0.10;;;;;;;;;;5051955;28;20043;-80
2024/04/05 02:03:44;;;;;;;0.20;0.10;;;;;;;;;;5050002;28;20444;-80
2024/04/05 02:06:14;;;;;;;0.20;0.10;;;;;;;;;;5057437;28;20091;-81
2024/04/05 02:08:40;;;;;;;0.20;0.00;;;;;;;;;;5064627;28;20044;-79
2024/04/05 02:11:06;;;;;;;0.20;0.10;;;;;;;;;;5049905;28;20072;-81
2024/04/05 02:13:32;;;;;;;0.20;0.10;;;;;;;;;;5063907;28;20044;-78
2024/04/05 02:15:58;;;;;;;0.20;0.10;;;;;;;;;;5048416;28;20871;-79
2024/04/05 02:18:24;;;;;;;0.30;0.20;;;;;;;;;;5060331;28;20420;-81
2024/04/05 02:20:57;;;;;;;0.20;0.00;;;;;;;;;;5063854;28;20183;-79
2024/04/05 02:23:23;;;;;;;0.22;0.20;;;;;;;;;;5059358;28;20508;-79
2024/04/05 02:25:50;;;;;;;0.20;0.10;;;;;;;;;;5040150;28;20090;-79
2024/04/05 02:28:16;;;;;;;0.20;0.00;;;;;;;;;;5067156;28;20056;-79
2024/04/05 02:30:42;;;;;;;0.20;0.10;;;;;;;;;;5065484;28;20044;-80
2024/04/05 02:33:08;;;;;;;0.20;0.10;;;;;;;;;;5050246;28;20492;-81
2024/04/05 02:35:34;;;;;;;0.20;0.00;;;;;;;;;;5063946;28;20458;-81
2024/04/05 02:38:00;;;;;;;0.20;0.10;;;;;;;;;;5045598;28;20037;-80
2024/04/05 02:40:26;;;;;;;0.20;0.10;;;;;;;;;;5066745;28;20413;-81
2024/04/05 02:42:52;;;;;;;0.20;0.00;;;;;;;;;;5057389;28;20033;-79
2024/04/05 02:45:18;;;;;;;0.20;0.00;;;;;;;;;;5046873;28;20043;-81
2024/04/05 02:47:44;;;;;;;0.20;0.10;;;;;;;;;;5047340;28;20405;-82
2024/04/05 02:50:10;;;;;;;0.50;0.35;;;;;;;;;;5049383;28;20091;-77
2024/04/05 02:52:36;;;;;;;0.20;0.10;;;;;;;;;;5053152;28;20071;-78
2024/04/05 02:55:02;;;;;;;0.20;0.10;;;;;;;;;;5066211;28;20044;-78
2024/04/05 02:57:28;;;;;;;0.20;0.10;;;;;;;;;;5062031;28;20051;-79
2024/04/05 02:59:54;;;;;;;0.20;0.00;;;;;;;;;;5058080;28;20120;-78
2024/04/05 03:02:20;;;;;;;0.20;0.10;;;;;;;;;;5047741;28;20051;-81
2024/04/05 03:04:46;;;;;;;0.20;0.03;;;;;;;;;;5052312;28;20111;-78
2024/04/05 03:07:12;;;;;;;0.20;0.10;;;;;;;;;;5063222;28;20067;-79
2024/04/05 03:09:40;;;;;;;0.20;0.03;;;;;;;;;;5073114;28;20071;-78
2024/04/05 03:12:07;;;;;;;0.20;0.20;;;;;;;;;;5050095;28;20098;-82
2024/04/05 03:14:33;;;;;;;0.20;0.10;;;;;;;;;;5075814;28;20048;-79
2024/04/05 03:17:00;;;;;;;0.38;0.38;;;;;;;;;;5052384;28;20033;-77
2024/04/05 03:19:26;;;;;;;0.30;0.30;;;;;;;;;;5064788;28;20650;-79
2024/04/05 03:21:52;;;;;;;0.20;0.10;;;;;;;;;;5065907;28;20037;-79
2024/04/05 03:24:18;;;;;;;0.20;0.10;;;;;;;;;;5064426;28;20040;-80
2024/04/05 03:26:44;;;;;;;0.20;0.00;;;;;;;;;;5051821;28;20033;-79
2024/04/05 03:29:10;;;;;;;0.20;0.10;;;;;;;;;;5052382;28;20704;-78
2024/04/05 03:31:37;;;;;;;0.20;0.00;;;;;;;;;;5064481;28;20044;-77
2024/04/05 03:34:03;;;;;;;0.20;0.00;;;;;;;;;;5051808;28;20045;-79
2024/04/05 03:36:29;;;;;;;0.20;0.10;;;;;;;;;;5058485;28;20036;-79
2024/04/05 03:39:00;;;;;;;0.20;0.00;;;;;;;;;;5057662;28;20092;-78
2024/04/05 03:41:28;;;;;;;0.20;0.10;;;;;;;;;;5060300;28;20040;-80
2024/04/05 03:43:54;;;;;;;0.20;0.00;;;;;;;;;;5052010;28;20115;-80
2024/04/05 03:46:22;;;;;;;0.20;0.00;;;;;;;;;;5056776;28;20056;-79
2024/04/05 03:48:47;;;;;;;0.20;0.10;;;;;;;;;;5047896;28;20789;-79
2024/04/05 03:51:14;;;;;;;0.20;0.00;;;;;;;;;;5063934;28;20029;-79
2024/04/05 03:53:40;;;;;;;0.20;0.10;;;;;;;;;;5066614;28;20105;-79
2024/04/05 03:56:06;;;;;;;0.20;0.03;;;;;;;;;;5080700;28;20024;-76
2024/04/05 03:58:32;;;;;;;0.20;0.00;;;;;;;;;;5061951;28;20044;-79
2024/04/05 04:00:59;;;;;;;0.20;0.00;;;;;;;;;;5060040;28;20068;-79
2024/04/05 04:03:25;;;;;;;0.20;0.10;;;;;;;;;;5051330;28;20379;-79
2024/04/05 04:05:51;;;;;;;0.20;0.10;;;;;;;;;;5047818;28;20033;-81
2024/04/05 04:08:17;;;;;;;0.20;0.00;;;;;;;;;;5046309;28;20507;-79
2024/04/05 04:10:43;;;;;;;0.20;0.10;;;;;;;;;;5054709;28;20064;-80
2024/04/05 04:13:09;;;;;;;0.20;0.00;;;;;;;;;;5059933;28;20516;-81
2024/04/05 04:15:36;;;;;;;0.20;0.10;;;;;;;;;;5065994;28;20020;-81
2024/04/05 04:18:02;;;;;;;0.20;0.10;;;;;;;;;;5058343;28;20068;-79
2024/04/05 04:20:29;;;;;;;0.20;0.10;;;;;;;;;;5054091;28;20461;-79
2024/04/05 04:22:55;;;;;;;0.20;0.10;;;;;;;;;;5061196;28;20029;-78
2024/04/05 04:25:26;;;;;;;0.20;0.00;;;;;;;;;;5065144;28;20042;-77
2024/04/05 04:27:52;;;;;;;0.20;0.10;;;;;;;;;;5067578;28;20020;-80
2024/04/05 04:30:18;;;;;;;0.30;0.20;;;;;;;;;;5048016;28;20041;-79
2024/04/05 04:32:44;;;;;;;0.20;0.10;;;;;;;;;;5048234;28;20029;-80
2024/04/05 04:35:10;;;;;;;0.20;0.10;;;;;;;;;;5047709;28;20032;-78
2024/04/05 04:37:36;;;;;;;0.20;0.10;;;;;;;;;;5062176;28;20044;-79
2024/04/05 04:40:02;;;;;;;0.28;0.28;;;;;;;;;;5065799;28;20037;-78
2024/04/05 04:42:28;;;;;;;0.20;0.10;;;;;;;;;;5058523;28;20496;-78
2024/04/05 04:44:56;;;;;;;0.20;0.10;;;;;;;;;;5060684;28;20036;-76
2024/04/05 04:47:24;;;;;;;0.20;0.10;;;;;;;;;;5053651;28;20087;-77
2024/04/05 04:49:51;;;;;;;0.20;0.00;;;;;;;;;;5061886;28;20047;-78
2024/04/05 04:52:17;;;;;;;0.20;0.10;;;;;;;;;;5065265;28;20059;-77
2024/04/05 04:54:43;;;;;;;0.20;0.10;;;;;;;;;;5068001;28;20040;-78
2024/04/05 04:57:09;;;;;;;0.20;0.10;;;;;;;;;;5071557;28;20087;-77
2024/04/05 04:59:35;;;;;;;0.20;0.10;;;;;;;;;;5059079;28;20037;-76
2024/04/05 05:02:01;;;;;;;0.20;0.10;;;;;;;;;;5062722;28;20158;-78
2024/04/05 05:04:28;;;;;;;0.20;0.10;;;;;;;;;;5051250;28;20048;-77
2024/04/05 05:06:54;;;;;;;0.20;0.10;;;;;;;;;;5063735;28;20431;-78
2024/04/05 05:09:20;;;;;;;0.20;0.00;;;;;;;;;;5069818;28;20041;-77
2024/04/05 05:11:47;;;;;;;0.20;0.10;;;;;;;;;;5048302;28;20040;-78
2024/04/05 05:14:13;;;;;;;0.20;0.10;;;;;;;;;;5069621;28;20115;-77
2024/04/05 05:16:39;;;;;;;0.20;0.00;;;;;;;;;;5061503;28;20044;-77
2024/04/05 05:19:07;;;;;;;0.20;0.17;;;;;;;;;;5066902;28;20040;-78
2024/04/05 05:21:33;;;;;;;0.30;0.13;;;;;;;;;;5064234;28;20515;-77
2024/04/05 05:23:59;;;;;;;0.30;0.28;;;;;;;;;;5047347;28;20033;-78
2024/04/05 05:26:25;;;;;;;0.20;0.10;;;;;;;;;;5068294;28;20120;-77
2024/04/05 05:28:51;;;;;;;1.38;1.27;;;;;;;;;;5059507;28;20071;-77
2024/04/05 05:31:17;;;;;;;0.20;0.10;;;;;;;;;;5067891;28;20036;-78
2024/04/05 05:33:43;;;;;;;0.20;0.00;;;;;;;;;;5056925;28;20097;-78
2024/04/05 05:36:09;;;;;;;0.32;0.32;;;;;;;;;;5069790;28;20036;-79
2024/04/05 05:38:35;;;;;;;0.20;0.10;;;;;;;;;;5068411;28;20496;-78
2024/04/05 05:41:02;;;;;;;0.20;0.00;;;;;;;;;;5071238;28;20048;-77
2024/04/05 05:43:28;;;;;;;0.20;0.10;;;;;;;;;;5056681;28;20543;-78
2024/04/05 05:45:54;;;;;;;0.20;0.10;;;;;;;;;;5053789;28;20451;-77
2024/04/05 05:48:20;;;;;;;0.20;0.00;;;;;;;;;;5062456;28;20041;-77
2024/04/05 05:50:46;;;;;;;0.20;0.00;;;;;;;;;;5058239;28;20044;-78
2024/04/05 05:53:12;;;;;;;0.30;0.20;;;;;;;;;;5072900;28;20040;-79
2024/04/05 05:55:38;;;;;;;0.20;0.10;;;;;;;;;;5056084;28;20101;-78
2024/04/05 05:58:04;;;;;;;0.20;0.10;;;;;;;;;;5063268;28;20036;-77
2024/04/05 06:00:30;;;;;;;0.20;0.10;;;;;;;;;;5056337;28;20048;-77
2024/04/05 06:02:56;;;;;;;0.20;0.20;;;;;;;;;;5071493;28;20036;-77
2024/04/05 06:05:23;;;;;;;0.20;0.10;;;;;;;;;;5062699;28;20130;-78
2024/04/05 06:07:50;;;;;;;0.20;0.10;;;;;;;;;;5067087;28;20062;-78
2024/04/05 06:10:16;;;;;;;0.20;0.00;;;;;;;;;;5067884;28;20078;-77
2024/04/05 06:12:42;;;;;;;0.20;0.10;;;;;;;;;;5057851;28;20135;-78
2024/04/05 06:15:10;;;;;;;0.20;0.00;;;;;;;;;;5062374;28;20095;-79
2024/04/05 06:17:36;;;;;;;0.20;0.10;;;;;;;;;;5055195;28;20143;-79
2024/04/05 06:20:05;;;;;;;0.20;0.10;;;;;;;;;;5053744;28;20059;-79
2024/04/05 06:22:32;;;;;;;0.22;0.20;;;;;;;;;;5056073;28;20032;-80
2024/04/05 06:24:58;;;;;;;0.20;0.10;;;;;;;;;;5058200;28;20036;-78
2024/04/05 06:27:24;;;;;;;0.20;0.00;;;;;;;;;;5081114;28;20561;-78
2024/04/05 06:29:50;;;;;;;0.20;0.10;;;;;;;;;;5072225;28;20067;-79
2024/04/05 06:32:17;;;;;;;0.20;0.10;;;;;;;;;;5068356;28;20107;-79
2024/04/05 06:34:43;;;;;;;0.20;0.00;;;;;;;;;;5059509;28;20287;-79
2024/04/05 06:37:10;;;;;;;0.20;0.10;;;;;;;;;;5066273;28;20123;-78
2024/04/05 06:39:36;;;;;;;0.25;0.25;;;;;;;;;;5065083;28;20043;-79
2024/04/05 06:42:02;;;;;;;0.20;0.10;;;;;;;;;;5047976;23;20045;-78
2024/04/05 06:44:31;;;;;;;0.20;0.00;;;;;;;;;;5041714;28;20132;-79
2024/04/05 06:46:58;;;;;;;0.20;0.08;;;;;;;;;;5042980;28;20059;-79
2024/04/05 06:49:24;;;;;;;0.20;0.10;;;;;;;;;;5038940;28;20497;-78
2024/04/05 06:51:51;;;;;;;0.20;0.05;;;;;;;;;;5036977;28;20123;-80
2024/04/05 06:54:17;;;;;;;0.30;0.30;;;;;;;;;;5044874;28;20090;-79
2024/04/05 06:56:44;;;;;;;0.20;0.10;;;;;;;;;;5042608;28;20040;-79
2024/04/05 06:59:10;;;;;;;0.30;0.20;;;;;;;;;;5057346;28;20555;-80
2024/04/05 07:01:36;;;;;;;0.20;0.00;;;;;;;;;;5031474;28;20037;-80
2024/04/05 07:04:02;;;;;;;0.22;0.15;;;;;;;;;;5027916;28;20037;-78
2024/04/05 07:06:28;;;;;;;0.20;0.10;;;;;;;;;;5041239;28;20040;-78
2024/04/05 07:08:54;;;;;;;0.20;0.10;;;;;;;;;;5039974;28;20045;-80
2024/04/05 07:11:21;;;;;;;0.63;0.63;;;;;;;;;;5037722;28;20052;-80
2024/04/05 07:13:48;;;;;;;0.20;0.10;;;;;;;;;;5032586;28;20040;-78
2024/04/05 07:16:15;;;;;;;0.30;0.25;;;;;;;;;;5040636;28;20041;-80
2024/04/05 07:18:41;;;;;;;0.20;0.20;;;;;;;;;;5028706;28;20033;-79
2024/04/05 07:21:07;;;;;;;0.50;0.28;;;;;;;;;;5031558;28;20046;-80
2024/04/05 07:23:34;;;;;;;0.57;0.32;;;;;;;;;;5043712;28;20129;-78
2024/04/05 07:26:00;;;;;;;0.20;0.20;;;;;;;;;;5053996;28;20044;-81
2024/04/05 07:28:26;;;;;;;0.20;0.10;;;;;;;;;;5037612;28;20042;-80
2024/04/05 07:30:53;;;;;;;0.20;0.10;;;;;;;;;;5031729;28;20131;-78
2024/04/05 07:33:19;;;;;;;0.20;0.10;;;;;;;;;;5040896;28;20045;-79
2024/04/05 07:35:45;;;;;;;0.20;0.10;;;;;;;;;;5035799;28;20105;-79
2024/04/05 07:38:11;;;;;;;0.20;0.10;;;;;;;;;;5037065;28;20116;-79
2024/04/05 07:40:37;;;;;;;0.20;0.10;;;;;;;;;;5030977;28;20506;-79
2024/04/05 07:43:03;;;;;;;0.45;0.45;;;;;;;;;;5038368;28;20431;-80
2024/04/05 07:45:29;;;;;;;0.30;0.15;;;;;;;;;;5031493;28;20051;-80
2024/04/05 07:47:55;;;;;;;0.20;0.10;;;;;;;;;;5043424;28;20036;-79
2024/04/05 07:50:22;;;;;;;0.32;0.20;;;;;;;;;;5030048;28;20041;-80
2024/04/05 07:52:55;;;;;;;0.20;0.10;;;;;;;;;;5042640;28;20123;-78
2024/04/05 07:55:21;;;;;;;;;;;;;;;;;;5038421;28;20120;-80
2024/04/05 07:57:47;;;;;;;0.20;0.10;;;;;;;;;;5024812;28;19935;-79
2024/04/05 08:00:14;;;;;;;0.50;0.38;;;;;;;;;;5044376;28;20041;-78
2024/04/05 08:02:50;;;;;;;0.20;0.10;;;;;;;;;;5039805;28;20037;-79
2024/04/05 08:05:16;;;;;;;0.20;0.00;;;;;;;;;;5035300;28;20049;-80
2024/04/05 08:07:42;;;;;;;0.20;0.10;;;;;;;;;;5034731;28;20539;-79
2024/04/05 08:10:12;;;;;;;0.20;0.10;;;;;;;;;;5038636;28;20037;-79
2024/04/05 08:12:39;;;;;;;0.20;0.00;;;;;;;;;;5042935;28;20044;-79
2024/04/05 08:15:05;;;;;;;0.20;0.10;;;;;;;;;;5028669;28;20493;-79
2024/04/05 08:17:31;;;;;;;0.20;0.10;;;;;;;;;;5037301;28;20521;-78
2024/04/05 08:19:57;;;;;;;0.20;0.00;;;;;;;;;;5029233;28;20485;-79
2024/04/05 08:22:23;;;;;;;0.20;0.00;;;;;;;;;;5024689;28;20037;-77
2024/04/05 08:24:49;;;;;;;0.20;0.10;;;;;;;;;;5043873;28;20048;-79
2024/04/05 08:27:15;;;;;;;0.20;0.00;;;;;;;;;;5044516;28;20049;-81
2024/04/05 08:29:41;;;;;;;0.20;0.10;;;;;;;;;;5031045;28;20040;-79
2024/04/05 08:32:08;;;;;;;0.20;0.00;;;;;;;;;;5031048;28;20044;-78
2024/04/05 08:34:34;;;;;;;0.35;0.10;;;;;;;;;;5045752;28;20502;-78
2024/04/05 08:37:00;;;;;;;0.20;0.10;;;;;;;;;;5027779;28;20040;-79
2024/04/05 08:39:26;;;;;;;0.20;0.10;;;;;;;;;;5038049;28;20588;-78
2024/04/05 08:41:56;;;;;;;0.20;0.00;;;;;;;;;;5047253;28;20356;-79
2024/04/05 08:44:22;;;;;;;0.20;0.10;;;;;;;;;;5041197;28;20524;-80
2024/04/05 08:46:48;;;;;;;0.20;0.10;;;;;;;;;;5042634;28;20401;-77
2024/04/05 08:49:17;;;;;;;0.20;0.00;;;;;;;;;;5043171;28;20098;-77
2024/04/05 08:51:43;;;;;;;0.20;0.00;;;;;;;;;;5035318;28;20562;-79
2024/04/05 08:54:09;;;;;;;0.20;0.10;;;;;;;;;;5043272;28;20039;-79
2024/04/05 08:56:35;;;;;;;0.20;0.10;;;;;;;;;;5042643;28;20029;-78
2024/04/05 08:59:02;;;;;;;0.20;0.10;;;;;;;;;;5027293;28;20033;-80
2024/04/05 09:01:28;;;;;;;0.20;0.00;;;;;;;;;;5026949;28;20040;-80
2024/04/05 09:03:54;;;;;;;0.20;0.10;;;;;;;;;;5045187;28;20414;-79
2024/04/05 09:06:21;;;;;;;0.20;0.10;;;;;;;;;;5038314;28;20042;-78
2024/04/05 09:08:50;;;;;;;0.20;0.10;;;;;;;;;;5030749;28;20382;-79
2024/04/05 09:11:22;;;;;;;0.20;0.00;;;;;;;;;;5039843;28;20203;-81
2024/04/05 09:13:58;;;;;;;0.20;0.10;;;;;;;;;;5029559;28;20041;-78
2024/04/05 09:16:24;;;;;;;0.20;0.10;;;;;;;;;;5029783;28;20379;-77
2024/04/05 09:18:51;;;;;;;0.30;0.17;;;;;;;;;;5048072;28;20520;-78
2024/04/05 09:21:17;;;;;;;0.20;0.00;;;;;;;;;;5041698;28;20120;-82
2024/04/05 09:23:49;;;;;;;0.20;0.20;;;;;;;;;;5026796;28;20037;-79
2024/04/05 09:26:36;;;;;;;0.40;0.20;;;;;;;;;;5044821;28;20037;-79
2024/04/05 09:29:02;;;;;;;0.20;0.00;;;;;;;;;;5042137;28;20041;-82
2024/04/05 09:31:31;;;;;;;0.20;0.10;;;;;;;;;;5040389;28;20341;-80
2024/04/05 09:34:14;;;;;;;0.20;0.05;;;;;;;;;;5040397;28;20033;-80
2024/04/05 09:36:40;;;;;;;;;;;;;;;;;;5041553;28;20037;-78
2024/04/05 09:39:06;;;;;;;0.20;0.10;;;;;;;;;;5049771;28;20419;-79
2024/04/05 09:41:36;;;;;;;0.20;0.10;;;;;;;;;;5026026;28;20040;-77
2024/04/05 09:44:06;;;;;;;0.20;0.10;;;;;;;;;;5031561;28;20045;-78
2024/04/05 09:46:32;;;;;;;0.20;0.10;;;;;;;;;;5032786;28;20041;-79
2024/04/05 09:48:59;;;;;;;0.20;0.00;;;;;;;;;;5044402;28;20059;-77
2024/04/05 09:51:26;;;;;;;0.20;0.10;;;;;;;;;;5030333;28;20037;-79
2024/04/05 09:53:54;;;;;;;0.22;0.13;;;;;;;;;;5033442;28;20068;-78
2024/04/05 09:56:24;;;;;;;0.20;0.10;;;;;;;;;;5032304;28;20404;-79
2024/04/05 09:58:51;;;;;;;0.20;0.00;;;;;;;;;;5050125;28;20044;-78
2024/04/05 10:01:18;;;;;;;0.20;0.08;;;;;;;;;;5029498;28;20048;-78
2024/04/05 10:03:47;;;;;;;0.20;0.10;;;;;;;;;;5031754;28;20079;-80
2024/04/05 10:06:14;;;;;;;0.20;0.00;;;;;;;;;;5044484;28;20405;-80
2024/04/05 10:08:40;;;;;;;0.20;0.10;;;;;;;;;;5042209;28;20513;-80
2024/04/05 10:11:13;;;;;;;0.32;0.10;;;;;;;;;;5036374;28;20033;-80
2024/04/05 10:13:39;;;;;;;0.20;0.08;;;;;;;;;;5052454;28;20047;-80
2024/04/05 10:16:06;;;;;;;0.20;0.10;;;;;;;;;;5029811;28;20042;-80
2024/04/05 10:18:39;;;;;;;0.20;0.10;;;;;;;;;;5047248;28;21561;-79
2024/04/05 10:21:08;;;;;;;0.20;0.10;;;;;;;;;;5050347;28;20103;-80
2024/04/05 10:23:34;;;;;;;0.20;0.00;;;;;;;;;;5046891;28;20041;-81
2024/04/05 10:26:00;;;;;;;0.20;0.10;;;;;;;;;;5045587;28;20038;-81
2024/04/05 10:28:28;;;;;;;0.20;0.10;;;;;;;;;;5029892;28;20037;-81
2024/04/05 10:30:54;;;;;;;0.20;0.00;;;;;;;;;;5041769;28;20095;-80
2024/04/05 10:33:21;;;;;;;0.20;0.00;;;;;;;;;;5034253;28;20048;-81
2024/04/05 10:35:48;;;;;;;0.20;0.10;;;;;;;;;;5032178;28;20067;-80
2024/04/05 10:38:14;;;;;;;0.20;0.10;;;;;;;;;;5044452;28;20040;-81
2024/04/05 10:40:40;;;;;;;0.20;0.00;;;;;;;;;;5046485;28;20098;-80
2024/04/05 10:43:10;;;;;;;0.20;0.00;;;;;;;;;;5046506;28;20056;-80
2024/04/05 10:45:37;;;;;;;0.20;0.10;;;;;;;;;;5039589;28;20044;-81
2024/04/05 10:48:04;;;;;;;0.20;0.10;;;;;;;;;;5042626;28;21039;-80
2024/04/05 10:50:30;;;;;;;0.20;0.10;;;;;;;;;;5042688;28;20087;-81
2024/04/05 10:52:56;;;;;;;0.30;0.20;;;;;;;;;;5039615;28;20045;-81
2024/04/05 10:55:22;;;;;;;0.20;0.05;;;;;;;;;;5031844;28;20119;-79
2024/04/05 10:57:48;;;;;;;0.20;0.10;;;;;;;;;;5041400;28;20176;-80
2024/04/05 11:00:14;;;;;;;0.20;0.00;;;;;;;;;;5046073;28;20041;-81
2024/04/05 11:02:41;;;;;;;0.20;0.10;;;;;;;;;;5042321;28;20583;-80
2024/04/05 11:05:14;;;;;;;0.20;0.10;;;;;;;;;;5042264;28;20044;-80
2024/04/05 11:07:41;;;;;;;0.20;0.10;;;;;;;;;;5028384;28;20523;-82
2024/04/05 11:10:15;;;;;;;0.20;0.10;;;;;;;;;;5027729;28;20098;-83
2024/04/05 11:12:41;;;;;;;0.20;0.00;;;;;;;;;;5033619;28;20052;-81
2024/04/05 11:15:07;;;;;;;0.20;0.10;;;;;;;;;;5043869;28;20037;-79
2024/04/05 11:17:33;;;;;;;0.20;0.03;;;;;;;;;;5020551;28;20063;-82
2024/04/05 11:20:11;;;;;;;0.20;0.10;;;;;;;;;;5031214;28;20041;-80
2024/04/05 11:22:37;;;;;;;0.30;0.20;;;;;;;;;;5045644;28;20033;-81
2024/04/05 11:25:03;;;;;;;0.30;0.20;;;;;;;;;;5043652;28;20111;-83
2024/04/05 11:27:30;;;;;;;0.20;0.10;;;;;;;;;;5042021;28;20079;-81
2024/04/05 11:29:56;;;;;;;0.20;0.10;;;;;;;;;;5045622;28;20064;-83
2024/04/05 11:32:29;;;;;;;0.20;0.10;;;;;;;;;;5041843;28;20565;-82
2024/04/05 11:34:55;;;;;;;;;;;;;;;;;;5041790;28;20044;-81
2024/04/05 11:37:21;;;;;;;0.80;0.80;;;;;;;;;;5031065;28;19916;-82
2024/04/05 11:39:47;;;;;;;0.20;0.10;;;;;;;;;;5026949;28;20045;-80
2024/04/05 11:42:13;;;;;;;1.20;1.17;;;;;;;;;;5037051;28;20029;-83
2024/04/05 11:44:40;;;;;;;0.20;0.20;;;;;;;;;;5038139;28;20108;-81
2024/04/05 11:47:06;;;;;;;0.20;0.10;;;;;;;;;;5043093;28;20497;-81
2024/04/05 11:49:32;;;;;;;0.20;0.10;;;;;;;;;;5048220;28;20119;-80
2024/04/05 11:51:59;;;;;;;0.20;0.10;;;;;;;;;;5043378;28;20044;-81
2024/04/05 11:54:25;;;;;;;0.20;0.00;;;;;;;;;;5054080;28;20562;-82
2024/04/05 11:56:51;;;;;;;0.20;0.00;;;;;;;;;;5041864;28;20033;-81
2024/04/05 11:59:17;;;;;;;0.20;0.05;;;;;;;;;;5041904;28;20099;-81
2024/04/05 12:01:43;;;;;;;0.20;0.10;;;;;;;;;;5041856;28;20463;-80
2024/04/05 12:04:10;;;;;;;0.20;0.00;;;;;;;;;;5027103;28;20422;-80
2024/04/05 12:06:36;;;;;;;0.45;0.30;;;;;;;;;;5039470;28;20064;-82
2024/04/05 12:09:05;;;;;;;0.35;0.30;;;;;;;;;;5029385;28;20040;-80
2024/04/05 12:11:31;;;;;;;0.20;0.10;;;;;;;;;;5059077;28;21876;-81
2024/04/05 12:13:58;;;;;;;0.20;0.10;;;;;;;;;;5041886;28;20139;-82
2024/04/05 12:16:24;;;;;;;0.20;0.10;;;;;;;;;;5044765;28;20098;-80
2024/04/05 12:18:50;;;;;;;0.20;0.10;;;;;;;;;;5041837;28;20040;-81
2024/04/05 12:21:17;;;;;;;0.20;0.10;;;;;;;;;;5026199;28;20481;-82
2024/04/05 12:23:43;;;;;;;0.20;0.00;;;;;;;;;;5024198;28;20032;-82
2024/04/05 12:26:09;;;;;;;0.20;0.10;;;;;;;;;;5041614;28;20037;-81
2024/04/05 12:28:36;;;;;;;0.20;0.10;;;;;;;;;;5039382;28;20037;-83
2024/04/05 12:31:05;;;;;;;0.20;0.00;;;;;;;;;;5018681;28;20075;-83
2024/04/05 12:33:31;;;;;;;0.20;0.10;;;;;;;;;;5042729;28;20170;-83
2024/04/05 12:35:59;;;;;;;0.20;0.00;;;;;;;;;;5026689;28;20087;-82
2024/04/05 12:38:28;;;;;;;0.20;0.10;;;;;;;;;;5039370;28;20046;-81
2024/04/05 12:40:55;;;;;;;0.20;0.00;;;;;;;;;;5059053;22;20028;-79
2024/04/05 12:43:21;;;;;;;0.20;0.00;;;;;;;;;;5058514;28;20133;-79
2024/04/05 12:45:57;;;;;;;0.20;0.10;;;;;;;;;;5045064;28;20036;-79
2024/04/05 12:48:23;;;;;;;0.20;0.10;;;;;;;;;;5049327;28;20136;-81
2024/04/05 12:50:57;;;;;;;0.20;0.10;;;;;;;;;;5055581;28;20040;-77
2024/04/05 12:53:23;;;;;;;0.20;0.00;;;;;;;;;;5051386;28;20064;-80
2024/04/05 12:55:56;;;;;;;0.20;0.10;;;;;;;;;;5043202;28;20040;-81
2024/04/05 12:58:27;;;;;;;0.30;0.25;;;;;;;;;;5042366;28;20044;-77
2024/04/05 13:00:53;;;;;;;0.40;0.40;;;;;;;;;;5046482;28;20064;-79
2024/04/05 13:03:20;;;;;;;0.20;0.08;;;;;;;;;;5042841;28;20048;-78
2024/04/05 13:05:47;;;;;;;0.20;0.10;;;;;;;;;;5064947;28;20349;-80
2024/04/05 13:08:13;;;;;;;0.20;0.10;;;;;;;;;;5042901;28;20123;-79
2024/04/05 13:10:39;;;;;;;0.30;0.15;;;;;;;;;;5043331;28;20132;-79
2024/04/05 13:13:05;;;;;;;0.20;0.10;;;;;;;;;;5057047;28;20044;-77
2024/04/05 13:15:39;;;;;;;0.20;0.08;;;;;;;;;;5063357;28;20048;-79
2024/04/05 13:18:06;;;;;;;0.20;0.10;;;;;;;;;;5049522;28;21155;-79
2024/04/05 13:20:32;;;;;;;0.20;0.10;;;;;;;;;;5045805;28;20243;-80
2024/04/05 13:22:59;;;;;;;0.20;0.15;;;;;;;;;;5063508;28;20037;-79
2024/04/05 13:25:27;;;;;;;0.20;0.08;;;;;;;;;;5065194;28;20028;-77
2024/04/05 13:27:53;;;;;;;0.20;0.10;;;;;;;;;;5057790;28;20462;-80
2024/04/05 13:30:19;;;;;;;0.20;0.10;;;;;;;;;;5063000;28;20072;-77
2024/04/05 13:32:45;;;;;;;0.20;0.10;;;;;;;;;;5045954;28;20051;-78
2024/04/05 13:35:11;;;;;;;0.30;0.20;;;;;;;;;;5060457;28;20444;-78
2024/04/05 13:37:37;;;;;;;0.20;0.15;;;;;;;;;;5062597;28;20040;-80
2024/04/05 13:40:05;;;;;;;0.20;0.10;;;;;;;;;;5045707;28;20124;-79
2024/04/05 13:42:34;;;;;;;0.20;0.10;;;;;;;;;;5047253;28;20089;-83
2024/04/05 13:45:00;;;;;;;0.20;0.00;;;;;;;;;;5048521;28;20036;-79
2024/04/05 13:47:26;;;;;;;0.30;0.15;;;;;;;;;;5040972;28;20444;-81
2024/04/05 13:49:52;;;;;;;0.20;0.10;;;;;;;;;;5065477;28;20047;-81
2024/04/05 13:52:18;;;;;;;0.20;0.13;;;;;;;;;;5042391;28;20052;-81
2024/04/05 13:54:44;;;;;;;0.20;0.10;;;;;;;;;;5040795;28;20071;-81
2024/04/05 13:57:11;;;;;;;0.20;0.10;;;;;;;;;;5062883;28;20064;-77
2024/04/05 13:59:37;;;;;;;0.20;0.10;;;;;;;;;;5065295;28;20045;-79
2024/04/05 14:02:06;;;;;;;0.20;0.10;;;;;;;;;;5051468;28;20416;-80
2024/04/05 14:04:33;;;;;;;0.20;0.00;;;;;;;;;;5049486;28;20287;-78
2024/04/05 14:06:59;;;;;;;0.20;0.10;;;;;;;;;;5063429;28;20229;-79
2024/04/05 14:09:25;;;;;;;0.20;0.17;;;;;;;;;;5059694;28;20035;-79
2024/04/05 14:11:51;;;;;;;0.20;0.10;;;;;;;;;;5050664;28;20036;-80
2024/04/05 14:14:19;;;;;;;0.20;0.00;;;;;;;;;;5046881;28;20041;-82
2024/04/05 14:16:45;;;;;;;0.40;0.35;;;;;;;;;;5049471;28;20135;-78
2024/04/05 14:19:11;;;;;;;0.20;0.10;;;;;;;;;;5057648;28;20087;-80
2024/04/05 14:21:37;;;;;;;0.20;0.10;;;;;;;;;;5064011;28;20032;-80
2024/04/05 14:24:04;;;;;;;1.15;0.30;;;;;;;;;;5051892;28;20572;-81
2024/04/05 14:26:30;;;;;;;0.20;0.00;;;;;;;;;;5056645;28;20036;-79
2024/04/05 14:28:56;;;;;;;0.20;0.00;;;;;;;;;;5054450;28;20526;-79
2024/04/05 14:31:22;;;;;;;0.30;0.25;;;;;;;;;;5060436;28;20116;-79
2024/04/05 14:33:48;;;;;;;0.20;0.10;;;;;;;;;;5058405;28;20036;-80
2024/04/05 14:36:14;;;;;;;0.20;0.10;;;;;;;;;;5039684;28;20047;-79
2024/04/05 14:38:41;;;;;;;0.20;0.10;;;;;;;;;;5064110;28;20047;-79
2024/04/05 14:41:11;;;;;;;0.20;0.10;;;;;;;;;;5059210;28;20037;-79